Time;durP1;ratioP1;P1;durP2;ratioP2;P2;SDS_P1;SDS_P2;PMS_P1;PMS_P2;Temp;Humidity;BMP_temperature;BMP_pressure;BME280_temperature;BME280_humidity;BME280_pressure;Samples;Min_cycle;Max_cycle;Signal;HPM_P1;HPM_P2
2022/08/26 00:02:11;;;;;;;;;4.50;4.50;;;;;20.87;66.84;100831.78;5074353;27;46238;-69
2022/08/26 00:04:36;;;;;;;;;5.00;5.00;;;;;20.85;66.80;100833.75;5073857;27;45385;-68
2022/08/26 00:07:02;;;;;;;;;3.75;3.75;;;;;20.86;67.42;100832.75;5074009;27;45369;-68
2022/08/26 00:09:28;;;;;;;;;4.00;4.00;;;;;20.85;66.85;100827.56;5072743;28;45622;-69
2022/08/26 00:11:53;;;;;;;;;4.25;4.25;;;;;20.84;67.07;100828.53;5074025;27;46537;-69
2022/08/26 00:14:19;;;;;;;;;5.00;5.00;;;;;20.82;67.42;100825.97;5073747;27;45474;-69
2022/08/26 00:16:44;;;;;;;;;4.00;4.00;;;;;20.81;67.61;100818.09;5072602;28;45348;-69
2022/08/26 00:19:10;;;;;;;;;5.25;5.25;;;;;20.80;67.79;100825.22;5074065;27;45244;-69
2022/08/26 00:21:35;;;;;;;;;4.50;4.50;;;;;20.79;68.35;100828.88;5073657;27;46162;-70
2022/08/26 00:24:01;;;;;;;;;4.00;4.00;;;;;20.69;68.10;100831.41;5072735;27;45536;-69
2022/08/26 00:26:26;;;;;;;;;5.75;5.75;;;;;20.70;68.22;100834.94;5074537;27;45410;-68
2022/08/26 00:28:51;;;;;;;;;4.00;4.00;;;;;20.70;68.40;100842.94;5074545;27;45545;-69
2022/08/26 00:31:17;;;;;;;;;5.75;5.75;;;;;20.69;68.79;100831.41;5074526;27;45662;-70
2022/08/26 00:33:42;;;;;;;;;4.50;4.50;;;;;20.70;68.82;100835.78;5073979;27;45424;-68
2022/08/26 00:36:08;;;;;;;;;5.00;5.00;;;;;20.66;68.51;100838.81;5072180;28;45306;-68
2022/08/26 00:38:37;;;;;;;;;5.25;5.25;;;;;20.64;68.56;100838.09;5074209;27;45498;-68
2022/08/26 00:41:02;;;;;;;;;5.50;5.00;;;;;20.67;68.23;100844.03;5073719;27;45425;-69
2022/08/26 00:43:32;;;;;;;;;5.00;5.00;;;;;20.68;69.28;100844.88;5074194;27;45387;-68
2022/08/26 00:46:09;;;;;;;;;4.00;4.00;;;;;20.66;68.31;100850.34;5077383;27;45415;-68
2022/08/26 00:48:38;;;;;;;;;5.00;5.00;;;;;20.65;68.54;100839.78;5077067;27;45329;-68
2022/08/26 00:51:14;;;;;;;;;6.00;6.00;;;;;20.64;68.96;100854.13;5077327;27;46333;-68
2022/08/26 00:53:45;;;;;;;;;7.00;7.00;;;;;20.63;68.61;100847.06;5077397;27;45395;-69
2022/08/26 00:56:20;;;;;;;;;6.00;6.00;;;;;20.65;68.89;100854.00;5077022;27;45219;-69
2022/08/26 00:58:46;;;;;;;;;7.00;7.00;;;;;20.63;69.09;100853.25;5077042;27;45384;-69
2022/08/26 01:01:13;;;;;;;;;7.00;7.00;;;;;20.57;69.99;100843.06;5076838;27;45460;-70
2022/08/26 01:03:40;;;;;;;;;6.25;6.25;;;;;20.59;69.73;100854.47;5076886;27;45361;-69
2022/08/26 01:06:06;;;;;;;;;7.00;7.00;;;;;20.54;69.55;100840.63;5076707;27;45354;-69
2022/08/26 01:08:32;;;;;;;;;7.00;7.00;;;;;20.51;69.38;100849.75;5076673;27;45594;-69
2022/08/26 01:10:59;;;;;;;;;7.00;7.00;;;;;20.50;69.96;100840.03;5076811;27;45607;-69
2022/08/26 01:13:27;;;;;;;;;8.00;8.00;;;;;20.48;69.75;100844.63;5076575;27;45412;-68
2022/08/26 01:15:55;;;;;;;;;6.00;6.00;;;;;20.46;70.09;100846.59;5076544;27;45196;-70
2022/08/26 01:18:21;;;;;;;;;8.00;8.00;;;;;20.43;69.73;100839.63;5076606;27;45385;-70
2022/08/26 01:21:20;;;;;;;;;7.00;7.00;;;;;20.40;70.26;100847.06;5076275;27;45690;-72
2022/08/26 01:23:49;;;;;;;;;7.00;7.00;;;;;20.34;70.39;100827.00;5076923;28;45418;-73
2022/08/26 01:26:20;;;;;;;;;7.25;6.00;;;;;20.33;70.51;100844.00;5076542;27;45235;-69
2022/08/26 01:28:49;;;;;;;;;7.00;7.00;;;;;20.27;70.75;100832.00;5077167;27;45326;-71
2022/08/26 01:31:17;;;;;;;;;6.00;6.00;;;;;20.26;70.97;100832.97;5074675;27;45729;-71
2022/08/26 01:33:49;;;;;;;;;6.50;6.50;;;;;20.23;71.07;100835.88;5075464;27;45419;-71
2022/08/26 01:36:14;;;;;;;;;7.25;7.25;;;;;20.10;70.99;100822.59;5076486;28;45381;-70
2022/08/26 01:38:40;;;;;;;;;8.75;8.75;;;;;20.17;71.23;100841.69;5076671;27;45275;-70
2022/08/26 01:41:07;;;;;;;;;9.00;9.00;;;;;20.16;71.56;100833.78;5076214;27;46801;-71
2022/08/26 01:43:37;;;;;;;;;9.75;9.75;;;;;20.13;71.47;100835.72;5076397;27;45503;-69
2022/08/26 01:46:03;;;;;;;;;8.50;8.50;;;;;20.13;71.84;100838.38;5076369;27;45240;-69
2022/08/26 01:48:33;;;;;;;;;7.00;7.00;;;;;20.13;71.69;100841.06;5077006;27;45681;-69
2022/08/26 01:51:02;;;;;;;;;9.50;9.50;;;;;20.13;72.05;100840.19;5076594;27;46506;-68
2022/08/26 01:53:28;;;;;;;;;8.25;8.25;;;;;20.12;72.19;100838.47;5076986;27;45287;-69
2022/08/26 01:55:57;;;;;;;;;10.00;10.00;;;;;20.12;72.02;100842.03;5073749;28;45292;-70
2022/08/26 01:58:54;;;;;;;;;7.75;7.75;;;;;20.11;72.20;100837.66;5076310;27;45626;-70
2022/08/26 02:01:21;;;;;;;;;11.00;11.00;;;;;20.12;71.90;100838.47;5071102;27;45395;-71
2022/08/26 02:04:08;;;;;;;;;10.25;10.25;;;;;20.12;71.79;100849.16;5075872;27;45255;-70
2022/08/26 02:06:36;;;;;;;;;11.00;11.00;;;;;20.09;72.38;100849.41;5076023;27;45195;-68
2022/08/26 02:09:03;;;;;;;;;11.75;11.75;;;;;20.03;72.65;100848.06;5076508;27;45511;-69
2022/08/26 02:11:28;;;;;;;;;12.25;12.25;;;;;20.01;72.42;100858.00;5076199;27;45556;-68
2022/08/26 02:14:00;;;;;;;;;10.25;10.25;;;;;19.97;72.61;100857.38;5075491;27;45492;-68
2022/08/26 02:16:31;;;;;;;;;14.50;14.50;;;;;20.00;72.47;100861.66;5075952;27;45411;-67
2022/08/26 02:18:58;;;;;;;;;16.25;16.25;;;;;19.94;72.71;100857.63;5076138;27;45385;-68
2022/08/26 02:21:23;;;;;;;;;11.25;11.25;;;;;19.90;72.70;100856.13;5075501;27;45429;-68
2022/08/26 02:23:50;;;;;;;;;13.00;13.00;;;;;19.93;72.71;100863.09;5075699;27;45292;-71
2022/08/26 02:26:19;;;;;;;;;12.00;12.00;;;;;19.93;73.04;100866.59;5074378;27;45359;-70
2022/08/26 02:28:54;;;;;;;;;12.75;12.75;;;;;19.90;73.43;100855.31;5075612;27;45517;-70
2022/08/26 02:31:19;;;;;;;;;10.50;10.50;;;;;19.85;73.73;100859.16;5075110;28;45472;-71
2022/08/26 02:33:44;;;;;;;;;15.00;15.00;;;;;19.82;73.63;100858.50;5075253;27;45413;-69
2022/08/26 02:36:10;;;;;;;;;13.25;13.25;;;;;19.84;73.29;100864.59;5075426;27;45282;-71
2022/08/26 02:38:35;;;;;;;;;12.75;12.75;;;;;19.87;73.16;100855.50;5075860;27;45397;-69
2022/08/26 02:41:01;;;;;;;;;14.25;14.25;;;;;19.84;73.31;100856.56;5075696;27;46564;-72
2022/08/26 02:43:26;;;;;;;;;17.00;17.00;;;;;19.81;73.35;100862.16;5075340;27;45202;-70
2022/08/26 02:45:52;;;;;;;;;16.50;16.50;;;;;19.81;73.29;100867.47;5075397;27;45389;-71
2022/08/26 02:48:20;;;;;;;;;18.25;17.50;;;;;19.76;74.08;100859.84;5074161;28;45605;-70
2022/08/26 02:50:46;;;;;;;;;17.00;16.75;;;;;19.73;74.20;100869.88;5075242;27;46305;-70
2022/08/26 02:53:12;;;;;;;;;16.00;16.00;;;;;19.65;74.60;100863.28;5073720;28;45285;-71
2022/08/26 02:55:38;;;;;;;;;14.75;14.50;;;;;19.62;74.12;100860.00;5074997;27;45332;-71
2022/08/26 02:58:03;;;;;;;;;18.00;18.00;;;;;19.61;74.70;100866.28;5075553;27;45542;-71
2022/08/26 03:00:30;;;;;;;;;17.25;17.25;;;;;19.59;74.65;100869.09;5074784;27;45400;-71
2022/08/26 03:02:56;;;;;;;;;15.50;15.50;;;;;19.59;74.96;100874.41;5074912;27;45357;-71
2022/08/26 03:05:23;;;;;;;;;16.50;16.50;;;;;19.56;74.69;100862.13;5074828;27;45152;-72
2022/08/26 03:07:50;;;;;;;;;11.50;11.50;;;;;19.58;75.47;100855.84;5074622;27;45264;-71
2022/08/26 03:10:15;;;;;;;;;19.25;17.25;;;;;19.56;74.86;100863.97;5074755;27;46269;-71
2022/08/26 03:12:44;;;;;;;;;17.50;17.00;;;;;19.56;75.40;100866.66;5074757;27;45256;-72
2022/08/26 03:15:11;;;;;;;;;17.25;17.25;;;;;19.54;76.08;100858.75;5075109;27;45425;-71
2022/08/26 03:17:36;;;;;;;;;19.75;19.25;;;;;19.51;75.21;100856.28;5073449;27;45367;-70
2022/08/26 03:20:07;;;;;;;;;19.25;19.25;;;;;19.51;75.12;100860.78;5074711;27;45313;-72
2022/08/26 03:22:33;;;;;;;;;20.75;20.75;;;;;19.50;75.64;100864.44;5075049;27;45571;-70
2022/08/26 03:24:58;;;;;;;;;19.50;19.50;;;;;19.48;75.50;100861.84;5073267;28;45306;-70
2022/08/26 03:27:24;;;;;;;;;23.25;23.25;;;;;19.46;75.59;100855.78;5074917;27;45653;-71
2022/08/26 03:32:33;;;;;;;;;20.00;20.00;;;;;19.42;76.57;100859.63;5075129;28;45404;-70
2022/08/26 03:34:58;;;;;;;;;18.00;18.00;;;;;19.37;76.39;100859.13;5074921;27;45337;-71
2022/08/26 03:37:24;;;;;;;;;18.75;18.75;;;;;19.34;75.89;100865.56;5074965;27;45543;-70
2022/08/26 03:39:49;;;;;;;;;23.00;23.00;;;;;19.30;76.23;100857.88;5074717;27;45732;-71
2022/08/26 03:42:15;;;;;;;;;20.25;20.25;;;;;19.31;76.73;100859.56;5074580;27;45296;-72
2022/08/26 03:44:41;;;;;;;;;19.50;19.50;;;;;19.28;76.91;100860.66;5074960;27;45271;-72
2022/08/26 03:47:06;;;;;;;;;19.75;19.75;;;;;19.27;76.95;100858.97;5075578;27;45596;-71
2022/08/26 03:49:34;;;;;;;;;22.50;22.50;;;;;19.25;76.69;100852.88;5074890;27;46017;-71
2022/08/26 03:52:00;;;;;;;;;24.00;24.00;;;;;19.28;77.21;100860.66;5074816;27;45257;-71
2022/08/26 03:54:25;;;;;;;;;23.00;23.00;;;;;19.28;77.07;100855.34;5074587;27;45222;-70
2022/08/26 03:56:51;;;;;;;;;21.00;21.00;;;;;19.28;76.65;100858.00;5074685;27;45333;-71
2022/08/26 03:59:16;;;;;;;;;25.00;25.00;;;;;19.27;77.39;100859.81;5074153;27;45576;-71
2022/08/26 04:01:41;;;;;;;;;25.00;24.25;;;;;19.28;77.84;100855.34;5074528;28;47319;-72
2022/08/26 04:04:07;;;;;;;;;23.25;23.25;;;;;19.30;77.65;100856.06;5074872;27;45268;-72
2022/08/26 04:06:38;;;;;;;;;22.00;22.00;;;;;19.33;77.82;100862.97;5074780;27;45390;-71
2022/08/26 04:09:16;;;;;;;;;23.00;21.00;;;;;19.37;77.18;100867.13;5074500;27;45587;-71
2022/08/26 04:11:43;;;;;;;;;19.00;19.00;;;;;19.38;77.01;100863.50;5072651;28;45395;-71
2022/08/26 04:14:13;;;;;;;;;22.00;22.00;;;;;19.39;77.42;100854.53;5078757;27;45313;-72
2022/08/26 04:16:40;;;;;;;;;20.75;20.75;;;;;19.38;77.26;100851.03;5077639;27;45463;-70
2022/08/26 04:19:07;;;;;;;;;22.75;22.75;;;;;19.38;77.36;100847.50;5076052;27;46059;-71
2022/08/26 04:21:32;;;;;;;;;21.50;21.50;;;;;19.44;76.95;100856.88;5077448;27;45394;-69
2022/08/26 04:23:58;;;;;;;;;19.75;19.75;;;;;19.44;76.90;100851.53;5077697;27;45344;-69
2022/08/26 04:26:23;;;;;;;;;19.25;19.25;;;;;19.47;77.07;100862.00;5077792;27;45448;-71
2022/08/26 04:28:51;;;;;;;;;22.25;22.25;;;;;19.45;77.17;100858.59;5077333;27;45663;-71
2022/08/26 04:31:17;;;;;;;;;21.75;21.75;;;;;19.47;76.80;100870.00;5076812;27;45397;-72
2022/08/26 04:33:44;;;;;;;;;22.00;21.75;;;;;19.48;76.76;100866.34;5077497;27;45175;-73
2022/08/26 04:36:10;;;;;;;;;23.75;23.25;;;;;19.48;77.52;100869.03;5078034;27;45776;-72
2022/08/26 04:38:35;;;;;;;;;24.75;24.75;;;;;19.49;77.12;100873.41;5077737;27;46525;-70
2022/08/26 04:41:02;;;;;;;;;27.75;27.75;;;;;19.52;76.49;100868.66;5077261;27;45495;-72
2022/08/26 04:43:29;;;;;;;;;23.25;23.25;;;;;19.53;76.75;100869.53;5077587;27;45327;-73
2022/08/26 04:45:57;;;;;;;;;22.50;22.50;;;;;19.55;76.83;100872.94;5077762;27;45566;-71
2022/08/26 04:48:22;;;;;;;;;23.50;23.50;;;;;19.54;77.12;100873.91;5077334;28;46402;-71
2022/08/26 04:50:48;;;;;;;;;23.75;23.75;;;;;19.53;76.75;100874.88;5077336;27;45366;-72
2022/08/26 04:53:14;;;;;;;;;21.25;21.25;;;;;19.54;76.80;100876.56;5077369;27;45186;-72
2022/08/26 04:55:39;;;;;;;;;27.25;25.25;;;;;19.55;76.69;100880.94;5077591;27;45214;-69
2022/08/26 04:58:07;;;;;;;;;24.75;24.75;;;;;19.51;76.85;100877.63;5076919;27;45754;-70
2022/08/26 05:00:33;;;;;;;;;23.00;23.00;;;;;19.51;76.85;100877.63;5076575;27;45390;-72
2022/08/26 05:02:59;;;;;;;;;25.25;25.25;;;;;19.52;77.67;100878.50;5076920;27;45381;-69
2022/08/26 05:05:24;;;;;;;;;23.00;22.50;;;;;19.50;77.61;100880.44;5077026;27;45447;-71
2022/08/26 05:07:50;;;;;;;;;25.25;25.25;;;;;19.54;77.30;100888.09;5076435;27;46190;-71
2022/08/26 05:10:15;;;;;;;;;24.00;24.00;;;;;19.54;77.13;100887.25;5076383;27;45290;-71
2022/08/26 05:12:40;;;;;;;;;26.25;26.25;;;;;19.56;77.36;100879.97;5076793;27;45314;-71
2022/08/26 05:15:06;;;;;;;;;23.25;23.25;;;;;19.61;76.69;100879.63;5076471;27;45435;-72
2022/08/26 05:17:32;;;;;;;;;22.00;22.00;;;;;19.63;76.61;100878.56;5074720;27;47214;-71
2022/08/26 05:19:57;;;;;;;;;23.50;23.50;;;;;19.63;76.80;100886.56;5076236;27;45377;-71
2022/08/26 05:22:22;;;;;;;;;21.00;20.75;;;;;19.67;76.30;100888.03;5076466;27;45218;-73
2022/08/26 05:24:48;;;;;;;;;22.50;22.50;;;;;19.69;76.43;100890.63;5076475;27;45275;-71
2022/08/26 05:27:13;;;;;;;;;25.75;25.75;;;;;19.68;76.21;100900.41;5076464;27;45508;-71
2022/08/26 05:29:39;;;;;;;;;24.50;24.50;;;;;19.69;75.74;100895.94;5076335;27;45381;-71
2022/08/26 05:32:05;;;;;;;;;25.75;25.25;;;;;19.69;76.40;100904.78;5069418;27;45247;-71
2022/08/26 05:34:31;;;;;;;;;23.50;21.75;;;;;19.69;76.02;100912.81;5054617;28;45566;-73
2022/08/26 05:36:57;;;;;;;;;22.50;22.50;;;;;19.70;75.80;100906.50;5056196;28;46090;-71
2022/08/26 05:39:23;;;;;;;;;23.75;23.75;;;;;19.71;76.38;100905.53;5055904;28;45350;-70
2022/08/26 05:41:49;;;;;;;;;26.25;26.25;;;;;19.69;76.36;100901.28;5055695;28;45332;-72
2022/08/26 05:44:17;;;;;;;;;22.75;22.75;;;;;19.69;76.29;100915.47;5056068;28;45354;-71
2022/08/26 05:46:43;;;;;;;;;27.25;27.25;;;;;19.68;76.30;100923.59;5056992;28;46422;-71
2022/08/26 05:49:10;;;;;;;;;24.75;24.75;;;;;19.67;76.02;100920.06;5054986;28;45485;-71
2022/08/26 05:51:35;;;;;;;;;24.75;24.75;;;;;19.70;76.33;100924.34;5056098;28;45365;-71
2022/08/26 05:54:02;;;;;;;;;21.50;21.50;;;;;19.74;76.03;100924.94;5055953;28;45558;-70
2022/08/26 05:56:28;;;;;;;;;21.75;21.75;;;;;19.76;76.20;100926.56;5055820;28;45674;-71
2022/08/26 05:58:55;;;;;;;;;26.50;26.50;;;;;19.72;75.84;100922.41;5055224;28;45414;-71
2022/08/26 06:01:24;;;;;;;;;24.75;24.75;;;;;19.76;76.20;100923.03;5055436;28;45401;-71
2022/08/26 06:03:53;;;;;;;;;25.00;22.25;;;;;19.77;76.08;100916.72;5055593;28;45562;-72
2022/08/26 06:06:22;;;;;;;;;27.50;26.75;;;;;19.81;75.76;100920.88;5055479;28;46420;-71
2022/08/26 06:08:48;;;;;;;;;25.50;24.75;;;;;19.83;75.76;100929.59;5055510;28;45243;-72
2022/08/26 06:11:18;;;;;;;;;22.75;22.75;;;;;19.81;76.32;100926.19;5055918;28;45238;-70
2022/08/26 06:13:43;;;;;;;;;27.75;27.75;;;;;19.78;75.62;100921.09;5055987;28;45353;-72
2022/08/26 06:16:12;;;;;;;;;26.25;26.25;;;;;19.80;75.94;100929.84;5055355;28;45414;-72
2022/08/26 06:18:42;;;;;;;;;23.25;23.25;;;;;19.82;75.70;100920.75;5055330;28;45380;-69
2022/08/26 06:21:14;;;;;;;;;24.00;23.25;;;;;19.84;75.34;100928.66;5055782;28;45457;-69
2022/08/26 06:26:25;;;;;;;;;23.75;23.75;;;;;19.83;74.79;100932.28;5054837;28;45224;-70
2022/08/26 06:28:50;;;;;;;;;22.00;22.00;;;;;19.82;74.52;100928.78;5055015;28;45258;-69
2022/08/26 06:31:16;;;;;;;;;20.00;20.00;;;;;19.77;74.71;100927.41;5055669;28;45308;-69
2022/08/26 06:33:43;;;;;;;;;20.25;20.25;;;;;19.79;74.32;100921.00;5055706;28;45535;-68
2022/08/26 06:36:08;;;;;;;;;24.25;24.25;;;;;19.82;74.45;100919.91;5055156;28;45751;-69
2022/08/26 06:38:34;;;;;;;;;24.50;24.50;;;;;19.82;74.14;100923.44;5054892;28;45314;-69
2022/08/26 06:40:59;;;;;;;;;23.75;23.75;;;;;19.84;74.00;100917.97;5054549;28;45409;-68
2022/08/26 06:43:26;;;;;;;;;24.00;24.00;;;;;19.87;73.97;100925.75;5053476;28;45599;-70
2022/08/26 06:46:03;;;;;;;;;22.25;22.25;;;;;19.90;73.74;100924.72;5054783;28;46227;-69
2022/08/26 06:48:29;;;;;;;;;23.00;23.00;;;;;19.96;73.76;100921.59;5054968;28;45205;-69
2022/08/26 06:51:06;;;;;;;;;24.75;24.75;;;;;20.08;73.20;100925.13;5054897;28;45266;-69
2022/08/26 06:53:32;;;;;;;;;21.00;21.00;;;;;20.14;72.58;100930.00;5054993;28;45270;-70
2022/08/26 06:55:57;;;;;;;;;21.00;21.00;;;;;20.10;72.43;100912.53;5055098;28;46169;-70
2022/08/26 06:58:23;;;;;;;;;21.00;21.00;;;;;20.22;72.01;100924.97;5054863;28;45329;-69
2022/08/26 07:00:48;;;;;;;;;19.50;19.50;;;;;20.28;72.08;100931.66;5054774;28;45434;-69
2022/08/26 07:03:13;;;;;;;;;21.25;21.25;;;;;20.34;71.54;100931.19;5071510;27;45470;-71
2022/08/26 07:05:39;;;;;;;;;19.25;19.25;;;;;20.42;71.25;100931.44;5074704;27;46181;-73
2022/08/26 07:08:05;;;;;;;;;21.75;21.75;;;;;20.50;71.01;100922.00;5073314;28;45391;-70
2022/08/26 07:10:30;;;;;;;;;20.75;19.75;;;;;20.62;70.49;100929.06;5075434;28;45352;-69
2022/08/26 07:12:56;;;;;;;;;19.75;19.50;;;;;20.74;70.15;100935.28;5075281;27;45530;-71
2022/08/26 07:15:21;;;;;;;;;20.00;20.00;;;;;20.83;69.98;100926.56;5074637;27;46506;-70
2022/08/26 07:17:47;;;;;;;;;19.50;19.50;;;;;20.95;69.39;100935.47;5075681;27;45231;-73
2022/08/26 07:20:12;;;;;;;;;17.75;17.75;;;;;21.03;68.76;100918.81;5075071;27;45232;-72
2022/08/26 07:22:38;;;;;;;;;19.25;19.25;;;;;21.11;68.51;100927.06;5074674;27;45192;-75
2022/08/26 07:25:08;;;;;;;;;18.50;18.50;;;;;21.23;67.85;100935.13;5078117;27;45551;-71
2022/08/26 07:27:36;;;;;;;;;17.25;17.25;;;;;21.22;67.49;100930.75;5074878;27;45372;-71
2022/08/26 07:30:04;;;;;;;;;16.50;16.50;;;;;21.29;67.80;100929.28;5075129;27;45240;-70
2022/08/26 07:32:29;;;;;;;;;20.50;20.50;;;;;21.35;67.22;100935.94;5074819;28;45631;-72
2022/08/26 07:34:55;;;;;;;;;18.00;18.00;;;;;21.28;67.25;100923.06;5072528;28;46317;-72
2022/08/26 07:37:21;;;;;;;;;17.50;17.50;;;;;21.43;66.75;100930.81;5073845;27;45776;-72
2022/08/26 07:39:46;;;;;;;;;18.50;18.50;;;;;21.50;66.57;100940.03;5075324;27;45364;-73
2022/08/26 07:42:14;;;;;;;;;14.50;14.50;;;;;21.55;66.02;100937.84;5073279;27;45323;-73
2022/08/26 07:44:40;;;;;;;;;18.00;18.00;;;;;21.58;65.89;100934.09;5074581;27;45327;-72
2022/08/26 07:47:07;;;;;;;;;16.00;15.25;;;;;21.71;65.54;100944.66;5072883;28;45457;-74
2022/08/26 07:49:33;;;;;;;;;15.75;15.75;;;;;21.80;64.99;100938.56;5074399;27;45240;-74
2022/08/26 07:51:59;;;;;;;;;15.75;15.75;;;;;21.86;64.46;100942.56;5074621;28;45160;-74
2022/08/26 07:54:25;;;;;;;;;19.25;19.25;;;;;21.87;64.85;100938.91;5072904;27;47942;-72
2022/08/26 07:56:50;;;;;;;;;16.50;16.50;;;;;21.91;63.97;100934.16;5074161;28;45409;-71
2022/08/26 07:59:18;;;;;;;;;15.00;15.00;;;;;21.93;64.04;100941.06;5074746;27;45289;-72
2022/08/26 08:01:44;;;;;;;;;21.25;21.25;;;;;22.00;64.03;100941.44;5074976;28;45580;-73
2022/08/26 08:04:10;;;;;;;;;17.75;17.75;;;;;22.13;63.80;100935.88;5074487;27;46538;-74
2022/08/26 08:06:37;;;;;;;;;17.00;16.00;;;;;22.29;63.30;100933.63;5074570;27;45862;-72
2022/08/26 08:09:03;;;;;;;;;15.50;15.50;;;;;22.49;62.75;100946.31;5074203;28;45308;-70
2022/08/26 08:11:30;;;;;;;;;15.25;15.25;;;;;22.57;62.06;100936.66;5074481;28;45460;-75
2022/08/26 08:13:56;;;;;;;;;14.75;14.75;;;;;22.63;61.74;100943.31;5074173;28;46369;-74
2022/08/26 08:16:23;;;;;;;;;14.75;14.75;;;;;22.61;61.77;100939.91;5073913;28;45549;-73
2022/08/26 08:18:48;;;;;;;;;15.00;15.00;;;;;22.57;61.77;100947.38;5074365;27;45245;-73
2022/08/26 08:21:14;;;;;;;;;13.75;13.75;;;;;22.52;61.18;100946.06;5074445;27;45500;-70
2022/08/26 08:23:39;;;;;;;;;13.25;13.25;;;;;22.55;61.64;100944.00;5073980;27;45326;-71
2022/08/26 08:26:07;;;;;;;;;11.50;11.50;;;;;22.68;61.42;100953.66;5074003;28;45393;-73
2022/08/26 08:28:33;;;;;;;;;16.50;16.50;;;;;22.80;60.62;100941.00;5073983;28;45362;-71
2022/08/26 08:31:00;;;;;;;;;16.00;14.50;;;;;22.84;60.12;100943.28;5073883;27;45184;-73
2022/08/26 08:33:28;;;;;;;;;15.00;15.00;;;;;22.86;59.95;100944.00;5073744;28;45444;-68
2022/08/26 08:35:54;;;;;;;;;16.25;16.25;;;;;22.83;59.78;100943.44;5073158;28;45434;-72
2022/08/26 08:38:20;;;;;;;;;10.00;10.00;;;;;22.88;59.93;100944.72;5072603;27;45406;-72
2022/08/26 08:40:45;;;;;;;;;15.25;15.25;;;;;22.97;59.26;100937.72;5073713;27;45654;-70
2022/08/26 08:43:19;;;;;;;;;12.25;12.25;;;;;23.16;59.66;100936.94;5073559;28;45761;-70
2022/08/26 08:45:50;;;;;;;;;9.75;9.75;;;;;23.40;59.24;100929.56;5073924;27;45437;-68
2022/08/26 08:48:26;;;;;;;;;14.75;14.75;;;;;23.69;58.08;100940.38;5072312;27;45285;-71
2022/08/26 08:50:54;;;;;;;;;13.25;13.25;;;;;23.88;57.57;100936.00;5072830;28;45493;-71
2022/08/26 08:53:41;;;;;;;;;14.00;14.00;;;;;23.99;57.10;100949.31;5073892;28;45393;-69
2022/08/26 08:56:22;;;;;;;;;15.00;15.00;;;;;23.90;57.46;100936.72;5073415;28;45459;-71
2022/08/26 08:58:56;;;;;;;;;14.00;14.00;;;;;23.75;57.83;100942.50;5072418;28;45457;-74
2022/08/26 09:01:48;;;;;;;;;13.25;13.25;;;;;23.66;57.89;100948.72;5074150;28;45225;-70
2022/08/26 09:04:29;;;;;;;;;10.50;10.50;;;;;23.58;57.94;100949.38;5073687;27;45370;-69
2022/08/26 09:06:58;;;;;;;;;15.00;15.00;;;;;23.54;58.00;100944.44;5075525;27;45341;-69
2022/08/26 09:09:36;;;;;;;;;15.00;15.00;;;;;23.44;58.38;100950.66;5077404;27;45254;-71
2022/08/26 09:12:03;;;;;;;;;13.75;13.75;;;;;23.42;58.08;100946.38;5077372;27;45596;-70
2022/08/26 09:14:30;;;;;;;;;26.25;26.25;;;;;23.43;58.35;100948.94;5076574;27;45389;-71
2022/08/26 09:17:02;;;;;;;;;10.75;10.75;;;;;23.47;57.23;100939.63;5077016;27;45343;-71
2022/08/26 09:19:46;;;;;;;;;13.75;13.75;;;;;23.55;57.41;100936.25;5076963;27;45401;-70
2022/08/26 09:22:30;;;;;;;;;11.25;11.25;;;;;23.78;57.37;100939.53;5077204;27;45438;-74
2022/08/26 09:24:55;;;;;;;;;12.50;12.50;;;;;23.96;56.33;100933.47;5076660;28;46478;-72
2022/08/26 09:27:41;;;;;;;;;15.50;15.50;;;;;24.04;56.27;100930.97;5076851;27;45338;-73
2022/08/26 09:30:09;;;;;;;;;12.25;12.25;;;;;24.07;55.66;100937.91;5076645;27;45318;-73
2022/08/26 09:32:35;;;;;;;;;13.00;12.25;;;;;23.96;55.82;100929.94;5076832;28;45782;-74
2022/08/26 09:35:07;;;;;;;;;14.50;14.25;;;;;23.83;55.69;100936.41;5076647;28;45362;-73
2022/08/26 09:37:42;;;;;;;;;13.00;12.50;;;;;23.74;55.63;100932.75;5075979;28;45412;-73
2022/08/26 09:40:27;;;;;;;;;13.25;13.25;;;;;23.77;55.98;100934.28;5074888;27;45535;-73
2022/08/26 09:43:14;;;;;;;;;12.75;12.75;;;;;23.86;55.71;100936.16;5076946;27;45499;-73
2022/08/26 09:45:44;;;;;;;;;13.25;13.25;;;;;24.00;55.67;100936.78;5076532;27;46495;-74
2022/08/26 09:48:10;;;;;;;;;11.75;11.75;;;;;24.17;55.17;100935.19;5076466;27;45215;-73
2022/08/26 09:50:36;;;;;;;;;11.25;11.25;;;;;24.33;54.15;100931.94;5076712;27;45242;-73
2022/08/26 09:53:10;;;;;;;;;12.50;12.50;;;;;24.38;53.44;100932.34;5075443;27;45449;-73
2022/08/26 09:55:38;;;;;;;;;10.00;10.00;;;;;24.42;53.46;100927.56;5076372;27;45355;-75
2022/08/26 09:58:04;;;;;;;;;10.50;10.50;;;;;24.51;53.45;100929.38;5074916;28;45351;-76
2022/08/26 10:00:36;;;;;;;;;11.50;11.50;;;;;24.60;53.40;100933.00;5076099;27;45338;-73
2022/08/26 10:03:09;;;;;;;;;10.75;10.75;;;;;24.76;52.99;100935.13;5076495;27;45335;-75
2022/08/26 10:05:46;;;;;;;;;10.50;10.50;;;;;24.93;52.87;100930.84;5075825;27;46334;-73
2022/08/26 10:08:40;;;;;;;;;6.25;6.25;;;;;25.12;52.99;100926.38;5076218;27;45414;-72
2022/08/26 10:11:18;;;;;;;;;8.50;8.50;;;;;25.17;52.32;100932.97;5073786;27;45281;-72
2022/08/26 10:13:49;;;;;;;;;10.00;10.00;;;;;25.15;51.61;100932.28;5076091;27;45364;-73
2022/08/26 10:16:22;;;;;;;;;12.75;12.75;;;;;25.18;52.10;100928.47;5075164;27;45216;-75
2022/08/26 10:19:08;;;;;;;;;11.75;11.75;;;;;25.31;51.34;100925.41;5075863;27;45173;-71
2022/08/26 10:21:49;;;;;;;;;11.00;11.00;;;;;25.48;51.48;100921.97;5074370;27;45276;-71
2022/08/26 10:24:22;;;;;;;;;12.00;12.00;;;;;25.45;50.50;100915.97;5076050;27;45401;-72
2022/08/26 10:27:01;;;;;;;;;8.75;8.75;;;;;25.39;50.89;100920.13;5073857;27;48110;-72
2022/08/26 10:29:44;;;;;;;;;9.25;9.25;;;;;25.35;50.58;100919.59;5075890;27;45313;-71
2022/08/26 10:32:22;;;;;;;;;10.25;10.25;;;;;25.40;50.31;100923.66;5075610;27;45283;-70
2022/08/26 10:34:47;;;;;;;;;8.50;8.50;;;;;25.31;49.61;100917.31;5075677;27;45819;-70
2022/08/26 10:37:26;;;;;;;;;11.00;11.00;;;;;25.15;49.81;100920.69;5075031;27;46211;-73
2022/08/26 10:39:59;;;;;;;;;9.25;9.25;;;;;25.13;49.92;100926.22;5075549;27;45362;-71
2022/08/26 10:42:31;;;;;;;;;11.75;11.75;;;;;25.16;50.45;100920.53;5075708;27;45298;-70
2022/08/26 10:45:04;;;;;;;;;9.75;9.75;;;;;25.30;50.05;100916.50;5075001;27;45602;-71
2022/08/26 10:47:38;;;;;;;;;8.25;8.25;;;;;25.38;49.50;100915.72;5075632;27;46291;-73
2022/08/26 10:50:04;;;;;;;;;10.00;10.00;;;;;25.27;49.44;100921.31;5053674;28;45442;-72
2022/08/26 10:52:58;;;;;;;;;9.25;9.25;;;;;25.05;49.27;100923.41;5055442;28;45297;-71
2022/08/26 10:55:52;;;;;;;;;9.00;9.00;;;;;24.80;50.05;100909.63;5056180;28;45445;-73
2022/08/26 10:58:43;;;;;;;;;10.75;10.75;;;;;24.77;50.57;100912.63;5055046;28;45459;-73
2022/08/26 11:04:13;;;;;;;;;13.25;13.25;;;;;25.19;50.38;100908.63;5056361;28;45387;-73
2022/08/26 11:06:39;;;;;;;;;7.50;7.50;;;;;25.49;49.28;100903.94;5056073;28;45232;-69
2022/08/26 11:09:07;;;;;;;;;8.25;8.25;;;;;25.65;48.26;100900.59;5055514;28;45937;-70
2022/08/26 11:11:38;;;;;;;;;8.75;8.75;;;;;25.71;47.06;100912.56;5055144;28;45320;-71
2022/08/26 11:14:10;;;;;;;;;9.00;9.00;;;;;25.71;47.52;100915.28;5055135;28;45160;-70
2022/08/26 11:16:36;;;;;;;;;7.25;7.25;;;;;25.78;47.26;100903.75;5055433;28;45376;-71
2022/08/26 11:19:02;;;;;;;;;12.25;12.25;;;;;25.97;46.57;100901.88;5054983;28;45452;-72
2022/08/26 11:21:47;;;;;;;;;7.50;7.50;;;;;26.13;46.26;100900.31;5054077;28;45261;-73
2022/08/26 11:24:41;;;;;;;;;11.75;11.75;;;;;26.31;46.12;100897.63;5055939;28;45197;-75
2022/08/26 11:27:30;;;;;;;;;8.00;8.00;;;;;26.51;44.63;100898.28;5055281;28;45654;-72
2022/08/26 11:30:00;;;;;;;;;7.00;7.00;;;;;26.68;43.89;100902.78;5054895;28;45872;-73